createdAt,value
2018-02-08T00:02:16.962Z,82.40
2018-02-08T00:04:45.062Z,84.00
2018-02-08T00:07:13.112Z,84.30
2018-02-08T00:09:41.173Z,83.40
2018-02-08T00:12:11.658Z,83.70
2018-02-08T00:14:45.482Z,83.60
2018-02-08T00:20:21.189Z,82.20
2018-02-08T00:22:49.998Z,79.70
2018-02-08T00:25:19.045Z,81.60
2018-02-08T00:27:47.120Z,81.70
2018-02-08T00:30:15.204Z,82.30
2018-02-08T00:32:44.028Z,82.10
2018-02-08T00:35:12.107Z,82.10
2018-02-08T00:37:41.946Z,82.10
2018-02-08T00:40:10.973Z,83.00
2018-02-08T00:42:41.045Z,82.60
2018-02-08T00:45:20.865Z,82.10
2018-02-08T00:47:48.949Z,81.80
2018-02-08T00:50:17.025Z,82.40
2018-02-08T00:52:45.143Z,82.30
2018-02-08T00:55:13.278Z,82.40
2018-02-08T00:58:01.863Z,82.00
2018-02-08T01:00:37.570Z,83.30
2018-02-08T01:03:09.699Z,83.30
2018-02-08T01:05:42.553Z,83.70
2018-02-08T01:08:10.921Z,83.80
2018-02-08T01:10:41.644Z,82.40
2018-02-08T01:13:11.938Z,82.10
2018-02-08T01:15:57.307Z,82.40
2018-02-08T01:18:44.143Z,82.40
2018-02-08T01:21:13.086Z,81.90
2018-02-08T01:23:41.196Z,82.10
2018-02-08T01:26:10.790Z,82.00
2018-02-08T01:28:41.840Z,82.10
2018-02-08T01:31:35.363Z,81.40
2018-02-08T01:34:18.421Z,81.30
2018-02-08T01:39:47.155Z,81.80
2018-02-08T01:42:15.999Z,81.70
2018-02-08T01:44:44.202Z,81.70
2018-02-08T01:47:12.253Z,82.10
2018-02-08T01:50:01.086Z,82.00
2018-02-08T01:53:01.219Z,83.00
2018-02-08T01:55:34.337Z,83.00
2018-02-08T01:58:33.344Z,83.60
2018-02-08T02:01:07.333Z,83.30
2018-02-08T02:03:38.792Z,83.80
2018-02-08T02:06:09.815Z,84.00
2018-02-08T02:08:40.743Z,84.00
2018-02-08T02:11:32.217Z,84.10
2018-02-08T02:14:06.699Z,84.40
2018-02-08T02:19:45.993Z,84.70
2018-02-08T02:22:14.817Z,84.50
2018-02-08T02:24:43.113Z,84.50
2018-02-08T02:27:11.193Z,84.40
2018-02-08T02:29:41.096Z,84.20
2018-02-08T02:32:32.362Z,83.70
2018-02-08T02:44:33.847Z,84.20
2018-02-08T02:47:29.551Z,84.20
2018-02-08T02:50:02.953Z,84.70
2018-02-08T02:52:36.395Z,84.80
2018-02-08T02:55:06.886Z,84.70
2018-02-08T02:57:41.273Z,84.70
2018-02-08T03:00:13.716Z,84.00
2018-02-08T03:03:01.363Z,84.20
2018-02-08T03:08:45.386Z,84.50
2018-02-08T03:11:13.817Z,84.50
2018-02-08T03:13:42.758Z,84.40
2018-02-08T03:16:13.096Z,84.60
2018-02-08T03:18:42.446Z,84.40
2018-02-08T03:21:30.407Z,83.70
2018-02-08T03:24:14.226Z,83.60
2018-02-08T03:33:01.380Z,84.60
2018-02-08T03:35:36.577Z,84.60
2018-02-08T03:38:08.091Z,83.60
2018-02-08T03:40:40.206Z,83.60
2018-02-08T03:43:13.286Z,83.90
2018-02-08T03:49:04.450Z,84.10
2018-02-08T03:51:59.955Z,84.60
2018-02-08T03:54:46.671Z,84.00
2018-02-08T04:00:11.275Z,84.60
2018-02-08T04:02:43.707Z,84.70
2018-02-08T04:05:13.651Z,85.00
2018-02-08T04:07:43.970Z,84.30
2018-02-08T04:10:12.755Z,84.60
2018-02-08T04:12:44.833Z,84.10
2018-02-08T04:15:13.701Z,84.80
2018-02-08T04:17:47.946Z,84.40
2018-02-08T04:20:16.291Z,84.40
2018-02-08T04:22:44.467Z,84.10
2018-02-08T04:25:34.389Z,85.50
2018-02-08T04:28:06.633Z,85.50
2018-02-08T04:30:40.758Z,85.70
2018-02-08T04:33:11.790Z,85.40
2018-02-08T04:35:43.137Z,85.40
2018-02-08T04:38:34.381Z,85.30
2018-02-08T04:41:31.768Z,85.30
2018-02-08T04:44:14.789Z,85.10
2018-02-08T04:50:06.866Z,85.40
2018-02-08T04:52:51.934Z,84.60
2018-02-08T04:55:21.732Z,84.60
2018-02-08T04:57:49.909Z,84.20
2018-02-08T05:00:21.459Z,84.60
2018-02-08T05:03:09.817Z,84.20
2018-02-08T05:05:42.803Z,84.10
2018-02-08T05:08:10.862Z,84.00
2018-02-08T05:10:42.365Z,83.90
2018-02-08T05:13:12.453Z,83.90
2018-02-08T05:15:43.465Z,83.90
2018-02-08T05:18:13.475Z,83.80
2018-02-08T05:20:41.536Z,84.30
2018-02-08T05:23:11.504Z,84.60
2018-02-08T05:25:42.137Z,85.60
2018-02-08T05:28:10.220Z,84.30
2018-02-08T05:30:38.278Z,84.20
2018-02-08T05:33:10.034Z,84.30
2018-02-08T05:35:42.107Z,85.80
2018-02-08T05:41:12.824Z,83.90
2018-02-08T05:43:40.898Z,83.20
2018-02-08T05:46:12.978Z,83.20
2018-02-08T05:48:41.053Z,84.00
2018-02-08T05:51:17.795Z,84.80
2018-02-08T05:53:45.864Z,85.30
2018-02-08T05:56:14.342Z,85.90
2018-02-08T05:58:43.400Z,86.30
2018-02-08T06:01:14.113Z,86.70
2018-02-08T06:03:42.397Z,86.60
2018-02-08T06:06:31.810Z,87.00
2018-02-08T06:09:33.605Z,85.80
2018-02-08T06:12:32.424Z,85.70
2018-02-08T06:18:11.822Z,85.40
2018-02-08T06:20:43.461Z,85.70
2018-02-08T06:23:13.298Z,86.70
2018-02-08T06:25:42.618Z,86.60
2018-02-08T06:28:13.451Z,87.20
2018-02-08T06:30:42.910Z,86.60
2018-02-08T06:33:10.976Z,86.70
2018-02-08T06:35:41.206Z,87.20
2018-02-08T06:38:10.806Z,87.10
2018-02-08T06:40:41.841Z,87.60
2018-02-08T06:43:12.143Z,87.60
2018-02-08T06:48:41.738Z,87.20
2018-02-08T06:51:11.299Z,87.80
2018-02-08T06:53:39.341Z,87.50
2018-02-08T06:56:08.717Z,87.40
2018-02-08T06:58:40.318Z,87.50
2018-02-08T07:01:31.139Z,87.60
2018-02-08T07:04:31.199Z,87.30
2018-02-08T07:07:13.523Z,87.40
2018-02-08T07:09:42.119Z,86.50
2018-02-08T07:12:10.223Z,86.00
2018-02-08T07:14:41.303Z,85.70
2018-02-08T07:17:11.693Z,85.40
2018-02-08T07:19:39.921Z,85.40
2018-02-08T07:22:32.030Z,84.80
2018-02-08T07:25:01.348Z,85.50
2018-02-08T07:27:32.779Z,84.40
2018-02-08T07:30:26.510Z,83.80
2018-02-08T07:33:09.385Z,84.00
2018-02-08T07:35:41.114Z,84.70
2018-02-08T07:38:11.002Z,85.40
2018-02-08T07:40:41.855Z,86.40
2018-02-08T07:43:11.764Z,86.40
2018-02-08T07:46:04.127Z,86.50
2018-02-08T07:48:34.297Z,86.60
2018-02-08T07:51:03.867Z,86.60
2018-02-08T07:53:34.216Z,86.30
2018-02-08T07:56:11.742Z,86.60
2018-02-08T08:01:49.349Z,86.10
2018-02-08T08:04:18.213Z,84.50
2018-02-08T08:06:46.420Z,84.10
2018-02-08T08:09:14.468Z,85.10
2018-02-08T08:11:42.529Z,85.20
2018-02-08T08:14:11.499Z,86.00
2018-02-08T08:16:39.772Z,86.20
2018-02-08T08:19:08.673Z,85.60
2018-02-08T08:21:44.776Z,85.30
2018-02-08T08:24:12.826Z,85.30
2018-02-08T08:26:40.990Z,85.30
2018-02-08T08:29:10.032Z,85.50
2018-02-08T08:31:43.155Z,85.10
2018-02-08T08:34:11.216Z,83.30
2018-02-08T08:36:39.409Z,83.40
2018-02-08T08:39:07.708Z,84.40
2018-02-08T08:41:43.974Z,85.20
2018-02-08T08:44:12.114Z,84.70
2018-02-08T08:46:40.810Z,85.60
2018-02-08T08:49:09.924Z,85.50
2018-02-08T08:51:39.148Z,85.40
2018-02-08T08:54:35.055Z,85.90
2018-02-08T08:57:27.827Z,86.00
2018-02-08T09:00:16.683Z,84.90
2018-02-08T09:02:44.774Z,84.70
2018-02-08T09:05:12.841Z,84.70
2018-02-08T09:07:42.614Z,85.00
2018-02-08T09:10:10.999Z,84.40
2018-02-08T09:13:02.432Z,84.30
2018-02-08T09:15:32.480Z,83.60
2018-02-08T09:18:08.805Z,83.20
2018-02-08T09:20:39.085Z,81.00
2018-02-08T09:23:08.901Z,82.30
2018-02-08T09:25:37.535Z,82.30
2018-02-08T09:28:10.683Z,82.30
2018-02-08T09:31:02.444Z,82.30
2018-02-08T09:33:50.361Z,82.40
2018-02-08T09:36:18.654Z,81.90
2018-02-08T09:38:46.868Z,82.80
2018-02-08T09:41:16.817Z,83.50
2018-02-08T09:43:45.557Z,82.90
2018-02-08T09:46:30.298Z,82.00
2018-02-08T09:49:27.238Z,82.00
2018-02-08T09:52:03.553Z,81.80
2018-02-08T09:54:42.031Z,80.20
2018-02-08T09:57:11.263Z,81.60
2018-02-08T09:59:40.068Z,81.10
2018-02-08T10:02:12.188Z,81.00
2018-02-08T10:04:42.238Z,81.20
2018-02-08T10:07:29.711Z,80.20
2018-02-08T10:10:07.559Z,79.70
2018-02-08T10:12:47.746Z,77.70
2018-02-08T10:15:15.857Z,77.60
2018-02-08T10:17:43.902Z,76.70
2018-02-08T10:20:12.460Z,78.00
2018-02-08T10:22:41.862Z,77.50
2018-02-08T10:25:10.539Z,78.40
2018-02-08T10:27:41.842Z,77.90
2018-02-08T10:30:10.977Z,77.60
2018-02-08T10:32:41.647Z,76.90
2018-02-08T10:35:13.299Z,77.80
2018-02-08T10:37:47.667Z,80.30
2018-02-08T10:40:15.791Z,79.60
2018-02-08T10:42:44.723Z,80.70
2018-02-08T10:45:12.792Z,80.60
2018-02-08T10:47:41.624Z,80.60
2018-02-08T10:50:13.203Z,79.50
2018-02-08T10:53:05.130Z,79.40
2018-02-08T10:55:38.494Z,78.70
2018-02-08T10:58:06.926Z,78.60
2018-02-08T11:00:36.064Z,79.50
2018-02-08T11:03:05.287Z,77.60
2018-02-08T11:08:37.696Z,76.90
2018-02-08T11:11:14.249Z,76.90
2018-02-08T11:13:46.266Z,75.50
2018-02-08T11:16:14.310Z,75.30
2018-02-08T11:18:42.355Z,75.10
2018-02-08T11:21:12.444Z,71.80
2018-02-08T11:24:00.674Z,72.70
2018-02-08T11:27:03.700Z,73.10
2018-02-08T11:29:38.700Z,73.00
2018-02-08T11:32:11.198Z,73.00
2018-02-08T11:34:39.235Z,70.00
2018-02-08T11:37:09.530Z,69.50
2018-02-08T11:39:37.582Z,69.50
2018-02-08T11:42:06.802Z,68.10
2018-02-08T11:47:46.557Z,70.20
2018-02-08T11:50:14.624Z,69.70
2018-02-08T11:52:42.687Z,69.80
2018-02-08T11:55:13.623Z,69.40
2018-02-08T11:57:42.122Z,67.50
2018-02-08T12:00:13.085Z,65.30
2018-02-08T12:02:41.731Z,65.10
2018-02-08T12:05:10.537Z,64.40
2018-02-08T12:07:40.050Z,63.80
2018-02-08T12:10:10.224Z,65.50
2018-02-08T12:12:40.906Z,65.40
2018-02-08T12:15:47.334Z,64.30
2018-02-08T12:18:15.456Z,64.10
2018-02-08T12:20:43.507Z,64.40
2018-02-08T12:23:12.694Z,63.00
2018-02-08T12:25:41.234Z,61.90
2018-02-08T12:28:10.389Z,60.30
2018-02-08T12:30:43.344Z,60.60
2018-02-08T12:33:12.723Z,59.30
2018-02-08T12:35:41.627Z,59.30
2018-02-08T12:38:10.784Z,59.20
2018-02-08T12:40:40.188Z,59.60
2018-02-08T12:43:08.503Z,60.40
2018-02-08T12:45:37.752Z,61.50
2018-02-08T12:48:06.424Z,64.00
2018-02-08T12:50:36.385Z,66.00
2018-02-08T12:53:07.220Z,62.40
2018-02-08T12:55:58.761Z,62.70
2018-02-08T12:58:33.532Z,60.00
2018-02-08T13:01:30.109Z,59.50
2018-02-08T13:04:01.546Z,58.80
2018-02-08T13:06:34.646Z,60.30
2018-02-08T13:09:07.506Z,60.40
2018-02-08T13:11:40.865Z,62.20
2018-02-08T13:14:11.085Z,61.90
2018-02-08T13:16:44.184Z,59.10
2018-02-08T13:19:12.537Z,59.10
2018-02-08T13:21:41.448Z,61.60
2018-02-08T13:24:10.930Z,60.40
2018-02-08T13:26:40.503Z,60.30
2018-02-08T13:29:13.806Z,65.20
2018-02-08T13:32:12.394Z,67.30
2018-02-08T13:34:49.824Z,67.30
2018-02-08T13:37:17.893Z,67.20
2018-02-08T13:39:48.395Z,65.90
2018-02-08T13:42:17.682Z,67.30
2018-02-08T13:44:45.744Z,67.20
2018-02-08T13:47:19.456Z,66.60
2018-02-08T13:49:48.065Z,66.70
2018-02-08T13:52:19.115Z,65.50
2018-02-08T13:54:54.717Z,66.40
2018-02-08T14:01:00.793Z,64.90
2018-02-08T14:03:33.472Z,66.50
2018-02-08T14:06:07.591Z,66.80
2018-02-08T14:12:00.378Z,65.10
2018-02-08T14:17:13.372Z,66.80
2018-02-08T14:19:41.401Z,66.80
2018-02-08T14:22:10.734Z,65.80
2018-02-08T14:25:00.713Z,64.30
2018-02-08T14:27:37.075Z,64.10
2018-02-08T14:30:29.706Z,62.30
2018-02-08T14:33:03.896Z,62.70
2018-02-08T14:35:42.484Z,62.60
2018-02-08T14:38:11.353Z,62.10
2018-02-08T14:40:40.157Z,63.60
2018-02-08T14:43:10.532Z,64.20
2018-02-08T14:45:41.217Z,64.20
2018-02-08T14:51:37.251Z,64.20
2018-02-08T14:54:18.341Z,63.70
2018-02-08T14:56:46.389Z,63.70
2018-02-08T14:59:15.217Z,65.70
2018-02-08T15:01:43.239Z,65.60
2018-02-08T15:04:29.433Z,65.10
2018-02-08T15:07:03.841Z,65.10
2018-02-08T15:09:41.298Z,66.20
2018-02-08T15:12:09.347Z,66.20
2018-02-08T15:14:38.545Z,67.30
2018-02-08T15:17:08.808Z,67.70
2018-02-08T15:19:37.801Z,68.20
2018-02-08T15:22:27.898Z,66.90
2018-02-08T15:25:12.608Z,67.50
2018-02-08T15:27:42.664Z,67.50
2018-02-08T15:30:12.404Z,68.70
2018-02-08T15:32:41.254Z,68.70
2018-02-08T15:35:11.763Z,69.50
2018-02-08T15:37:42.843Z,69.50
2018-02-08T15:40:11.374Z,69.70
2018-02-08T15:42:39.411Z,71.30
2018-02-08T15:45:08.731Z,70.50
2018-02-08T15:47:38.160Z,70.60
2018-02-08T15:50:08.838Z,71.10
2018-02-08T15:53:08.706Z,70.80
2018-02-08T15:55:42.551Z,71.30
2018-02-08T15:58:17.723Z,69.40
2018-02-08T16:00:46.545Z,69.10
2018-02-08T16:03:14.652Z,69.00
2018-02-08T16:05:42.998Z,68.70
2018-02-08T16:08:11.802Z,69.00
2018-02-08T16:10:42.683Z,69.00
2018-02-08T16:13:10.777Z,69.80
2018-02-08T16:15:39.543Z,71.10
2018-02-08T16:18:08.514Z,71.00
2018-02-08T16:20:37.908Z,72.80
2018-02-08T16:23:07.610Z,73.50
2018-02-08T16:25:35.930Z,73.50
2018-02-08T16:28:04.972Z,74.70
2018-02-08T16:30:35.450Z,75.60
2018-02-08T16:33:06.809Z,75.70
2018-02-08T16:36:00.773Z,76.50
2018-02-08T16:38:55.981Z,76.40
2018-02-08T16:41:31.753Z,76.40
2018-02-08T16:44:30.646Z,76.90
2018-02-08T16:47:00.785Z,77.30
2018-02-08T16:49:31.824Z,78.30
2018-02-08T16:52:04.362Z,78.20
2018-02-08T16:54:34.992Z,78.10
2018-02-08T16:57:04.213Z,78.20
2018-02-08T16:59:33.474Z,78.70
2018-02-08T17:02:02.112Z,79.20
2018-02-08T17:04:33.274Z,79.70
2018-02-08T17:07:03.535Z,79.10
2018-02-08T17:09:32.336Z,79.10
2018-02-08T17:12:10.860Z,78.90
2018-02-08T17:14:39.231Z,78.80
2018-02-08T17:17:08.216Z,78.70
2018-02-08T17:19:36.437Z,79.10
2018-02-08T17:22:05.110Z,78.60
2018-02-08T17:24:33.262Z,78.90
2018-02-08T17:27:10.261Z,79.20
2018-02-08T17:29:38.778Z,79.20
2018-02-08T17:32:07.043Z,79.90
2018-02-08T17:34:35.952Z,77.90
2018-02-08T17:37:04.155Z,78.00
2018-02-08T17:39:32.215Z,76.70
2018-02-08T17:42:00.399Z,77.00
2018-02-08T17:44:28.852Z,76.70
2018-02-08T17:46:58.112Z,77.10
2018-02-08T17:49:26.679Z,77.70
2018-02-08T17:51:55.977Z,78.50
2018-02-08T17:54:26.385Z,78.50
2018-02-08T17:56:58.784Z,79.20
2018-02-08T17:59:28.052Z,79.70
2018-02-08T18:01:56.506Z,79.70
2018-02-08T18:04:24.718Z,79.90
2018-02-08T18:06:53.626Z,79.80
2018-02-08T18:09:21.832Z,79.80
2018-02-08T18:11:49.902Z,80.00
2018-02-08T18:14:18.013Z,80.30
2018-02-08T18:16:46.060Z,80.10
2018-02-08T18:19:14.112Z,80.10
2018-02-08T18:21:42.603Z,80.10
2018-02-08T18:24:10.655Z,80.40
2018-02-08T18:26:38.702Z,80.60
2018-02-08T18:29:06.789Z,80.00
2018-02-08T18:31:34.835Z,79.50
2018-02-08T18:34:02.887Z,78.80
2018-02-08T18:36:30.951Z,78.60
2018-02-08T18:38:59.108Z,79.00
2018-02-08T18:41:27.207Z,78.90
2018-02-08T18:43:55.294Z,79.60
2018-02-08T18:46:23.412Z,79.60
2018-02-08T18:48:51.540Z,80.00
2018-02-08T18:51:20.488Z,79.70
2018-02-08T18:53:48.831Z,79.70
2018-02-08T18:56:16.996Z,79.00
2018-02-08T18:58:45.044Z,79.10
2018-02-08T19:01:13.553Z,79.70
2018-02-08T19:03:42.347Z,80.00
2018-02-08T19:06:10.414Z,79.60
2018-02-08T19:08:38.467Z,79.60
2018-02-08T19:11:07.295Z,80.20
2018-02-08T19:13:35.369Z,80.20
2018-02-08T19:16:03.433Z,80.50
2018-02-08T19:18:32.258Z,81.20
2018-02-08T19:21:00.327Z,81.10
2018-02-08T19:23:29.147Z,79.90
2018-02-08T19:25:57.195Z,79.80
2018-02-08T19:28:26.588Z,79.10
2018-02-08T19:30:55.473Z,79.10
2018-02-08T19:33:23.532Z,79.00
2018-02-08T19:35:51.607Z,78.00
2018-02-08T19:38:19.703Z,79.20
2018-02-08T19:40:47.900Z,78.50
2018-02-08T19:43:15.956Z,78.20
2018-02-08T19:45:44.240Z,78.30
2018-02-08T19:48:13.059Z,79.50
2018-02-08T19:50:41.100Z,79.60
2018-02-08T19:53:09.167Z,80.40
2018-02-08T19:55:37.217Z,80.70
2018-02-08T19:58:05.274Z,80.30
2018-02-08T20:00:33.322Z,80.50
2018-02-08T20:03:02.187Z,81.30
2018-02-08T20:05:30.248Z,81.30
2018-02-08T20:07:58.302Z,81.50
2018-02-08T20:10:26.347Z,81.50
2018-02-08T20:12:54.393Z,81.70
2018-02-08T20:15:26.900Z,82.00
2018-02-08T20:17:54.950Z,82.00
2018-02-08T20:20:23.779Z,82.10
2018-02-08T20:22:52.264Z,82.10
2018-02-08T20:25:25.887Z,82.20
2018-02-08T20:27:53.960Z,81.60
2018-02-08T20:30:22.019Z,82.00
2018-02-08T20:32:51.229Z,82.00
2018-02-08T20:35:19.262Z,82.00
2018-02-08T20:37:47.328Z,82.30
2018-02-08T20:40:21.888Z,82.00
2018-02-08T20:42:55.510Z,81.70
2018-02-08T20:45:23.572Z,80.30
2018-02-08T20:47:51.627Z,80.20
2018-02-08T20:50:19.697Z,80.30
2018-02-08T20:52:48.518Z,81.20
2018-02-08T20:55:17.529Z,81.30
2018-02-08T20:57:45.644Z,81.20
2018-02-08T21:00:13.698Z,81.20
2018-02-08T21:02:42.061Z,81.40
2018-02-08T21:05:10.895Z,81.60
2018-02-08T21:07:39.068Z,81.60
2018-02-08T21:10:07.124Z,81.60
2018-02-08T21:12:35.454Z,82.00
2018-02-08T21:15:04.276Z,81.30
2018-02-08T21:17:32.335Z,81.20
2018-02-08T21:20:00.408Z,81.50
2018-02-08T21:22:28.461Z,81.80
2018-02-08T21:24:56.561Z,81.90
2018-02-08T21:27:25.398Z,81.70
2018-02-08T21:29:53.447Z,81.60
2018-02-08T21:32:22.280Z,82.20
2018-02-08T21:34:50.344Z,82.20
2018-02-08T21:37:18.409Z,82.00
2018-02-08T21:39:47.728Z,80.60
2018-02-08T21:42:15.833Z,80.50
2018-02-08T21:44:43.888Z,79.60
2018-02-08T21:47:12.759Z,79.90
2018-02-08T21:49:40.816Z,79.90
2018-02-08T21:52:08.906Z,80.40
2018-02-08T21:54:36.981Z,80.80
2018-02-08T21:57:05.041Z,81.20
2018-02-08T21:59:33.095Z,81.30
2018-02-08T22:02:01.147Z,81.70
2018-02-08T22:04:29.209Z,81.70
2018-02-08T22:06:57.315Z,82.00
2018-02-08T22:09:25.386Z,81.70
2018-02-08T22:11:53.470Z,81.50
2018-02-08T22:14:22.312Z,81.20
2018-02-08T22:16:51.139Z,81.20
2018-02-08T22:19:23.217Z,81.40
2018-02-08T22:21:52.042Z,80.30
2018-02-08T22:24:20.134Z,80.20
2018-02-08T22:26:48.200Z,80.30
2018-02-08T22:29:16.254Z,79.80
2018-02-08T22:31:44.320Z,80.70
2018-02-08T22:34:12.366Z,81.00
2018-02-08T22:36:40.454Z,80.90
2018-02-08T22:39:08.518Z,82.00
2018-02-08T22:41:36.700Z,81.50
2018-02-08T22:44:06.300Z,81.00
2018-02-08T22:46:35.120Z,81.20
2018-02-08T22:49:03.255Z,81.10
2018-02-08T22:51:31.513Z,81.10
2018-02-08T22:53:59.681Z,80.60
2018-02-08T22:56:28.893Z,80.20
2018-02-08T22:59:08.824Z,80.50
2018-02-08T23:01:37.092Z,80.50
2018-02-08T23:04:05.509Z,81.50
2018-02-08T23:06:33.670Z,81.40
2018-02-08T23:09:02.035Z,81.70
2018-02-08T23:11:30.343Z,81.70
2018-02-08T23:13:59.488Z,81.60
2018-02-08T23:16:29.370Z,81.20
2018-02-08T23:18:58.956Z,81.10
2018-02-08T23:21:28.530Z,80.50
2018-02-08T23:23:58.620Z,78.80
2018-02-08T23:26:27.815Z,79.10
2018-02-08T23:29:01.055Z,79.20
2018-02-08T23:31:31.044Z,79.10
2018-02-08T23:34:01.210Z,79.90
2018-02-08T23:36:32.186Z,79.90
2018-02-08T23:39:12.327Z,78.90
2018-02-08T23:41:41.433Z,78.90
2018-02-08T23:44:10.189Z,79.30
2018-02-08T23:46:39.081Z,79.40
2018-02-08T23:49:09.169Z,80.00
2018-02-08T23:51:38.176Z,80.30
2018-02-08T23:54:11.754Z,80.30
2018-02-08T23:56:42.732Z,79.60
2018-02-08T23:59:11.551Z,80.20
